createdAt,value
2023-02-06T00:01:58.560Z,102096.69
2023-02-06T00:04:46.859Z,102098.67
2023-02-06T00:07:48.955Z,102091.14
2023-02-06T00:10:34.936Z,102096.24
2023-02-06T00:14:14.150Z,102093.67
2023-02-06T00:18:00.504Z,102100.29
2023-02-06T00:21:13.480Z,102101.49
2023-02-06T00:27:29.948Z,102088.13
2023-02-06T00:30:12.263Z,102090.52
2023-02-06T00:32:52.767Z,102091.36
2023-02-06T00:35:55.781Z,102084.19
2023-02-06T00:38:46.264Z,102086.64
2023-02-06T00:41:32.333Z,102079.73
2023-02-06T00:44:39.697Z,102071.15
2023-02-06T00:50:33.126Z,102058.30
2023-02-06T00:53:21.692Z,102068.35
2023-02-06T00:56:42.668Z,102066.30
2023-02-06T01:02:50.219Z,102063.11
2023-02-06T01:05:41.989Z,102069.05
2023-02-06T01:08:38.226Z,102068.14
2023-02-06T01:11:27.313Z,102068.80
2023-02-06T01:14:33.210Z,102083.05
2023-02-06T01:17:24.879Z,102085.40
2023-02-06T01:20:33.787Z,102073.83
2023-02-06T01:27:13.729Z,102075.69
2023-02-06T01:30:12.883Z,102072.99
2023-02-06T01:33:17.837Z,102067.61
2023-02-06T01:36:13.833Z,102065.59
2023-02-06T01:39:10.958Z,102071.18
2023-02-06T01:42:27.490Z,102060.56
2023-02-06T01:46:06.819Z,102052.11
2023-02-06T01:49:16.565Z,102036.79
2023-02-06T01:52:46.019Z,102049.16
2023-02-06T01:55:43.019Z,102050.09
2023-02-06T01:59:21.813Z,102045.93
2023-02-06T02:02:11.680Z,102046.70
2023-02-06T02:04:50.269Z,102049.34
2023-02-06T02:07:55.285Z,102052.60
2023-02-06T02:11:24.013Z,102044.69
2023-02-06T02:14:08.570Z,102041.43
2023-02-06T02:18:24.573Z,102037.39
2023-02-06T02:21:34.777Z,102024.02
2023-02-06T02:33:19.659Z,102012.70
2023-02-06T02:36:25.327Z,102010.16
2023-02-06T02:39:15.327Z,102010.90
2023-02-06T02:42:56.548Z,102003.11
2023-02-06T02:46:27.272Z,101995.95
2023-02-06T02:49:42.289Z,101997.94
2023-02-06T02:52:41.847Z,101995.65
2023-02-06T02:55:36.348Z,101992.76
2023-02-06T02:58:23.011Z,101989.98
2023-02-06T03:01:41.899Z,101984.10
2023-02-06T03:05:03.283Z,101988.90
2023-02-06T03:07:48.287Z,101984.95
2023-02-06T03:11:32.582Z,101988.17
2023-02-06T03:15:01.673Z,101977.17
2023-02-06T03:18:30.848Z,101963.73
2023-02-06T03:21:31.970Z,101953.71
2023-02-06T03:24:48.894Z,101962.05
2023-02-06T03:28:16.483Z,101954.59
2023-02-06T03:31:26.577Z,101963.10
2023-02-06T03:35:26.448Z,101965.94
2023-02-06T03:38:37.991Z,101947.14
2023-02-06T03:41:37.243Z,101942.19
2023-02-06T03:44:50.787Z,101942.89
2023-02-06T03:51:53.286Z,101951.59
2023-02-06T03:55:08.134Z,101949.90
2023-02-06T03:58:01.663Z,101946.21
2023-02-06T04:01:43.343Z,101950.18
2023-02-06T04:04:50.451Z,101943.18
2023-02-06T04:07:57.124Z,101940.93
2023-02-06T04:11:33.732Z,101948.67
2023-02-06T04:14:59.431Z,101948.73
2023-02-06T04:18:19.463Z,101947.02
2023-02-06T04:21:26.527Z,101947.87
2023-02-06T04:24:22.422Z,101948.36
2023-02-06T04:27:20.501Z,101950.00
2023-02-06T04:30:41.387Z,101954.30
2023-02-06T04:34:11.879Z,101952.57
2023-02-06T04:37:30.062Z,101961.86
2023-02-06T04:40:18.920Z,101965.45
2023-02-06T04:43:33.361Z,101959.96
2023-02-06T04:46:58.507Z,101959.91
2023-02-06T04:49:54.223Z,101950.19
2023-02-06T04:52:48.000Z,101948.50
2023-02-06T04:55:50.393Z,101941.77
2023-02-06T04:59:32.851Z,101944.41
2023-02-06T05:06:37.823Z,101945.85
2023-02-06T05:09:34.588Z,101947.10
2023-02-06T05:13:15.662Z,101930.41
2023-02-06T05:20:42.217Z,101916.63
2023-02-06T05:33:48.293Z,101912.36
2023-02-06T05:37:08.883Z,101922.79
2023-02-06T05:40:06.128Z,101932.86
2023-02-06T05:43:11.231Z,101935.10
2023-02-06T05:57:44.166Z,101966.98
2023-02-06T06:01:05.556Z,101965.76
2023-02-06T06:04:27.325Z,101967.16
2023-02-06T06:11:06.318Z,101963.41
2023-02-06T06:15:28.680Z,101953.48
2023-02-06T06:18:20.928Z,101960.95
2023-02-06T06:21:21.280Z,101963.49
2023-02-06T06:24:03.356Z,101964.60
2023-02-06T06:32:05.950Z,101974.16
2023-02-06T06:40:10.600Z,101972.39
2023-02-06T06:41:57.600Z,101977.11
2023-02-06T06:45:46.789Z,101966.98
2023-02-06T06:49:38.513Z,101958.52
2023-02-06T06:53:24.020Z,101962.20
2023-02-06T06:56:30.628Z,101956.95
2023-02-06T06:59:35.499Z,101954.73
2023-02-06T07:02:09.756Z,101957.56
2023-02-06T07:04:40.498Z,101955.79
2023-02-06T07:07:13.807Z,101954.71
2023-02-06T07:09:43.737Z,101954.33
2023-02-06T07:12:12.859Z,101954.24
2023-02-06T07:14:44.189Z,101958.84
2023-02-06T07:17:19.349Z,101962.52
2023-02-06T07:19:49.909Z,101966.80
2023-02-06T07:22:24.010Z,101964.49
2023-02-06T07:24:58.538Z,101970.34
2023-02-06T07:27:27.218Z,101969.98
2023-02-06T07:29:58.120Z,101977.11
2023-02-06T07:32:44.657Z,101980.29
2023-02-06T07:35:21.383Z,101980.98
2023-02-06T07:38:00.026Z,101979.66
2023-02-06T07:41:26.195Z,101983.96
2023-02-06T07:44:46.577Z,101989.63
2023-02-06T07:47:41.435Z,101996.65
2023-02-06T07:50:12.675Z,102000.59
2023-02-06T07:52:49.217Z,101996.53
2023-02-06T07:55:48.598Z,101999.73
2023-02-06T07:58:28.854Z,101999.30
2023-02-06T08:01:05.052Z,101999.82
2023-02-06T08:04:45.188Z,102009.10
2023-02-06T08:11:20.578Z,102001.79
2023-02-06T08:14:06.099Z,101995.86
2023-02-06T08:16:47.964Z,101994.94
2023-02-06T08:20:02.339Z,101989.02
2023-02-06T08:22:40.127Z,101992.24
2023-02-06T08:26:05.962Z,102000.52
2023-02-06T08:28:49.694Z,102015.20
2023-02-06T08:32:12.791Z,102015.77
2023-02-06T08:35:26.862Z,102011.91
2023-02-06T08:38:06.680Z,102000.99
2023-02-06T08:41:07.139Z,102001.71
2023-02-06T08:44:16.532Z,101989.12
2023-02-06T08:46:56.180Z,101985.53
2023-02-06T08:49:38.760Z,101987.96
2023-02-06T08:53:03.021Z,101998.70
2023-02-06T08:56:26.902Z,101994.94
2023-02-06T08:59:38.535Z,101993.83
2023-02-06T09:02:47.468Z,101993.13
2023-02-06T09:05:23.581Z,101986.75
2023-02-06T09:08:05.715Z,101988.27
2023-02-06T09:11:46.748Z,101985.34
2023-02-06T09:15:05.500Z,101985.05
2023-02-06T09:18:09.339Z,101987.59
2023-02-06T09:21:12.939Z,101993.64
2023-02-06T09:24:17.570Z,101990.11
2023-02-06T09:27:18.311Z,101983.23
2023-02-06T09:30:19.918Z,101983.60
2023-02-06T09:33:13.226Z,101981.69
2023-02-06T09:35:46.601Z,101976.77
2023-02-06T09:38:22.111Z,101984.88
2023-02-06T09:40:52.238Z,101988.73
2023-02-06T09:43:28.013Z,101992.77
2023-02-06T09:50:26.443Z,101989.36
2023-02-06T09:53:40.190Z,101985.45
2023-02-06T09:56:35.263Z,101991.64
2023-02-06T10:04:26.734Z,102009.48
2023-02-06T10:08:24.030Z,102005.64
2023-02-06T10:10:56.366Z,101999.22
2023-02-06T10:14:19.783Z,102005.67
2023-02-06T10:17:07.078Z,102008.36
2023-02-06T10:19:44.716Z,102015.12
2023-02-06T10:22:28.518Z,102011.61
2023-02-06T10:25:16.105Z,102023.36
2023-02-06T10:27:58.737Z,102031.27
2023-02-06T10:30:56.717Z,102019.27
2023-02-06T10:33:49.983Z,101998.11
2023-02-06T10:36:51.218Z,102003.81
2023-02-06T10:44:03.824Z,102000.52
2023-02-06T10:47:03.684Z,101998.70
2023-02-06T10:50:04.333Z,101981.70
2023-02-06T10:52:56.252Z,101985.30
2023-02-06T10:56:47.982Z,101976.11
2023-02-06T11:03:20.581Z,101980.84
2023-02-06T11:06:13.683Z,101979.14
2023-02-06T11:12:07.207Z,101976.77
2023-02-06T11:15:22.541Z,101972.69
2023-02-06T11:17:57.498Z,101986.25
2023-02-06T11:20:54.874Z,101980.09
2023-02-06T11:23:51.113Z,101976.35
2023-02-06T11:27:35.923Z,101980.05
2023-02-06T11:30:30.522Z,101983.27
2023-02-06T11:33:22.959Z,101980.05
2023-02-06T11:36:25.312Z,101986.42
2023-02-06T11:39:13.451Z,101982.73
2023-02-06T11:42:37.187Z,101987.40
2023-02-06T11:45:37.415Z,101982.79
2023-02-06T11:49:40.050Z,101987.10
2023-02-06T11:52:53.234Z,101990.77
2023-02-06T12:00:41.064Z,101983.77
2023-02-06T12:03:53.400Z,101985.81
2023-02-06T12:07:19.931Z,101980.64
2023-02-06T12:11:06.505Z,101983.27
2023-02-06T12:22:11.454Z,101985.19
2023-02-06T12:25:06.453Z,101982.98
2023-02-06T12:27:44.743Z,101977.69
2023-02-06T12:31:01.388Z,101980.19
2023-02-06T12:34:35.389Z,101979.39
2023-02-06T12:38:18.800Z,101972.27
2023-02-06T12:42:09.555Z,101976.00
2023-02-06T12:45:36.411Z,101976.00
2023-02-06T12:49:27.775Z,101979.39
2023-02-06T12:52:28.460Z,101981.20
2023-02-06T12:55:36.640Z,101975.66
2023-02-06T12:59:04.946Z,101981.23
2023-02-06T13:03:27.495Z,101979.30
2023-02-06T13:06:57.268Z,101975.67
2023-02-06T13:09:56.492Z,101973.55
2023-02-06T13:12:40.828Z,101972.77
2023-02-06T13:20:16.732Z,101972.27
2023-02-06T13:23:20.019Z,101963.80
2023-02-06T13:30:49.724Z,101965.09
2023-02-06T13:34:19.527Z,101959.05
2023-02-06T13:37:36.375Z,101968.83
2023-02-06T13:40:44.519Z,101979.02
2023-02-06T13:44:02.381Z,101981.73
2023-02-06T13:51:21.009Z,101976.87
2023-02-06T13:54:30.977Z,101985.84
2023-02-06T13:57:57.950Z,101988.14
2023-02-06T14:00:41.786Z,101982.83
2023-02-06T14:03:47.464Z,101987.04
2023-02-06T14:07:07.262Z,101989.15
2023-02-06T14:09:47.819Z,101988.45
2023-02-06T14:12:47.650Z,101987.39
2023-02-06T14:15:50.942Z,101996.04
2023-02-06T14:19:03.743Z,101994.63
2023-02-06T14:21:56.054Z,102000.64
2023-02-06T14:26:01.154Z,101998.40
2023-02-06T14:29:05.452Z,102003.42
2023-02-06T14:31:49.638Z,102002.98
2023-02-06T14:34:58.144Z,101996.23
2023-02-06T14:38:22.696Z,102008.98
2023-02-06T14:41:31.441Z,102022.29
2023-02-06T14:44:29.620Z,102029.61
2023-02-06T14:47:36.805Z,102032.08
2023-02-06T14:50:55.506Z,102041.14
2023-02-06T14:54:44.833Z,102051.96
2023-02-06T14:58:03.969Z,102064.11
2023-02-06T15:01:03.085Z,102070.91
2023-02-06T15:04:22.450Z,102075.26
2023-02-06T15:07:34.609Z,102078.56
2023-02-06T15:10:32.793Z,102084.49
2023-02-06T15:14:20.506Z,102090.23
2023-02-06T15:17:22.784Z,102095.63
2023-02-06T15:20:17.641Z,102101.84
2023-02-06T15:23:55.292Z,102106.92
2023-02-06T15:27:21.199Z,102113.17
2023-02-06T15:30:07.434Z,102116.02
2023-02-06T15:32:49.124Z,102121.95
2023-02-06T15:35:42.803Z,102124.64
2023-02-06T15:38:46.142Z,102134.56
2023-02-06T15:41:51.086Z,102134.62
2023-02-06T15:45:08.224Z,102135.07
2023-02-06T15:51:17.303Z,102140.95
2023-02-06T15:54:17.877Z,102134.25
2023-02-06T15:57:55.520Z,102139.27
2023-02-06T16:00:43.226Z,102141.57
2023-02-06T16:04:12.050Z,102137.98
2023-02-06T16:07:44.089Z,102136.95
2023-02-06T16:10:46.633Z,102137.52
2023-02-06T16:13:23.272Z,102139.80
2023-02-06T16:16:40.622Z,102138.43
2023-02-06T16:19:48.752Z,102150.98
2023-02-06T16:22:49.721Z,102154.35
2023-02-06T16:26:45.846Z,102166.04
2023-02-06T16:29:41.609Z,102171.42
2023-02-06T16:32:36.506Z,102180.14
2023-02-06T16:35:27.020Z,102179.38
2023-02-06T16:41:22.193Z,102173.59
2023-02-06T16:43:54.876Z,102173.98
2023-02-06T16:46:31.902Z,102172.77
2023-02-06T16:49:14.360Z,102179.77
2023-02-06T16:51:55.567Z,102180.75
2023-02-06T16:54:33.644Z,102180.11
2023-02-06T16:57:21.475Z,102183.40
2023-02-06T17:00:25.851Z,102183.09
2023-02-06T17:03:01.961Z,102187.21
2023-02-06T17:05:35.839Z,102187.42
2023-02-06T17:08:18.093Z,102186.59
2023-02-06T17:11:07.065Z,102185.36
2023-02-06T17:13:50.334Z,102176.86
2023-02-06T17:16:21.437Z,102174.45
2023-02-06T17:18:52.944Z,102186.56
2023-02-06T17:21:24.128Z,102193.86
2023-02-06T17:24:02.480Z,102197.98
2023-02-06T17:26:34.182Z,102198.88
2023-02-06T17:29:03.380Z,102195.03
2023-02-06T17:31:41.949Z,102193.99
2023-02-06T17:34:10.718Z,102198.93
2023-02-06T17:36:41.197Z,102200.10
2023-02-06T17:39:15.567Z,102209.28
2023-02-06T17:41:50.142Z,102208.36
2023-02-06T17:44:24.910Z,102211.27
2023-02-06T17:46:55.287Z,102213.66
2023-02-06T17:49:26.671Z,102214.02
2023-02-06T17:52:00.091Z,102213.73
2023-02-06T17:54:34.261Z,102225.08
2023-02-06T17:57:10.169Z,102224.12
2023-02-06T17:59:39.393Z,102235.11
2023-02-06T18:02:12.937Z,102232.42
2023-02-06T18:04:41.845Z,102226.85
2023-02-06T18:07:10.968Z,102220.31
2023-02-06T18:09:41.927Z,102220.19
2023-02-06T18:12:11.256Z,102214.17
2023-02-06T18:14:42.901Z,102213.85
2023-02-06T18:17:13.124Z,102214.15
2023-02-06T18:20:02.828Z,102219.14
2023-02-06T18:22:58.713Z,102228.41
2023-02-06T18:25:59.715Z,102236.32
2023-02-06T18:28:38.986Z,102239.96
2023-02-06T18:31:27.796Z,102243.54
2023-02-06T18:34:14.769Z,102240.67
2023-02-06T18:37:09.819Z,102240.39
2023-02-06T18:39:50.118Z,102245.90
2023-02-06T18:42:57.248Z,102248.84
2023-02-06T18:45:55.013Z,102272.72
2023-02-06T18:48:36.884Z,102270.65
2023-02-06T18:51:16.148Z,102265.22
2023-02-06T18:53:50.855Z,102270.69
2023-02-06T18:56:26.751Z,102260.05
2023-02-06T18:59:18.228Z,102255.40
2023-02-06T19:02:14.546Z,102252.48
2023-02-06T19:05:42.941Z,102254.23
2023-02-06T19:08:51.505Z,102261.98
2023-02-06T19:11:34.214Z,102256.90
2023-02-06T19:17:19.943Z,102270.16
2023-02-06T19:20:08.679Z,102268.93
2023-02-06T19:23:05.022Z,102263.38
2023-02-06T19:25:41.402Z,102262.54
2023-02-06T19:28:20.497Z,102272.31
2023-02-06T19:31:36.403Z,102277.46
2023-02-06T19:34:17.807Z,102273.84
2023-02-06T19:36:48.806Z,102273.33
2023-02-06T19:39:22.482Z,102274.09
2023-02-06T19:42:19.056Z,102274.66
2023-02-06T19:44:53.859Z,102280.39
2023-02-06T19:47:29.040Z,102279.11
2023-02-06T19:50:01.063Z,102286.38
2023-02-06T19:52:40.052Z,102290.29
2023-02-06T19:55:14.485Z,102286.27
2023-02-06T19:58:09.724Z,102271.15
2023-02-06T20:04:01.423Z,102268.66
2023-02-06T20:06:35.229Z,102269.42
2023-02-06T20:09:27.284Z,102278.09
2023-02-06T20:11:59.448Z,102285.56
2023-02-06T20:14:28.144Z,102287.02
2023-02-06T20:17:02.472Z,102298.52
2023-02-06T20:19:31.642Z,102297.30
2023-02-06T20:22:05.902Z,102302.30
2023-02-06T20:24:35.042Z,102307.86
2023-02-06T20:27:07.497Z,102312.64
2023-02-06T20:29:38.786Z,102306.77
2023-02-06T20:32:08.365Z,102304.30
2023-02-06T20:34:36.904Z,102306.07
2023-02-06T20:37:05.894Z,102303.77
2023-02-06T20:39:39.346Z,102296.05
2023-02-06T20:42:10.900Z,102296.73
2023-02-06T20:44:41.841Z,102296.41
2023-02-06T20:47:13.520Z,102293.83
2023-02-06T20:49:54.050Z,102288.45
2023-02-06T20:52:25.223Z,102299.53
2023-02-06T20:54:54.176Z,102298.60
2023-02-06T20:57:23.303Z,102299.20
2023-02-06T20:59:51.915Z,102303.80
2023-02-06T21:02:20.576Z,102308.64
2023-02-06T21:04:52.267Z,102306.20
2023-02-06T21:07:20.913Z,102307.90
2023-02-06T21:12:33.285Z,102307.83
2023-02-06T21:15:01.937Z,102308.50
2023-02-06T21:17:30.155Z,102306.02
2023-02-06T21:19:58.728Z,102303.54
2023-02-06T21:22:27.091Z,102299.45
2023-02-06T21:24:55.510Z,102295.59
2023-02-06T21:27:24.344Z,102291.33
2023-02-06T21:29:53.227Z,102281.05
2023-02-06T21:32:22.047Z,102278.92
2023-02-06T21:34:50.398Z,102274.17
2023-02-06T21:37:18.848Z,102272.53
2023-02-06T21:39:47.178Z,102276.49
2023-02-06T21:42:15.620Z,102278.98
2023-02-06T21:44:43.947Z,102279.64
2023-02-06T21:47:15.216Z,102283.11
2023-02-06T21:49:43.554Z,102290.70
2023-02-06T21:52:11.888Z,102299.70
2023-02-06T21:54:40.719Z,102304.25
2023-02-06T21:57:08.971Z,102311.01
2023-02-06T21:59:38.170Z,102315.34
2023-02-06T22:02:07.130Z,102319.30
2023-02-06T22:04:36.798Z,102326.56
2023-02-06T22:07:08.234Z,102335.59
2023-02-06T22:09:36.847Z,102336.80
2023-02-06T22:12:07.518Z,102342.41
2023-02-06T22:14:36.101Z,102344.80
2023-02-06T22:17:07.332Z,102346.95
2023-02-06T22:19:37.911Z,102344.80
2023-02-06T22:22:06.227Z,102336.52
2023-02-06T22:24:34.513Z,102335.70
2023-02-06T22:27:03.272Z,102335.66
2023-02-06T22:29:35.456Z,102339.17
2023-02-06T22:32:05.212Z,102345.48
2023-02-06T22:34:33.534Z,102350.39
2023-02-06T22:37:04.133Z,102353.45
2023-02-06T22:39:32.357Z,102351.77
2023-02-06T22:42:01.067Z,102354.20
2023-02-06T22:44:31.435Z,102354.61
2023-02-06T22:47:00.586Z,102347.41
2023-02-06T22:49:29.255Z,102346.41
2023-02-06T22:52:00.516Z,102347.97
2023-02-06T22:54:28.712Z,102354.34
2023-02-06T22:56:57.221Z,102357.55
2023-02-06T22:59:28.188Z,102364.23
2023-02-06T23:01:58.950Z,102366.05
2023-02-06T23:04:38.800Z,102363.52
2023-02-06T23:07:13.680Z,102365.13
2023-02-06T23:09:57.717Z,102366.83
2023-02-06T23:12:56.875Z,102363.95
2023-02-06T23:15:45.562Z,102362.44
2023-02-06T23:18:20.324Z,102361.94
2023-02-06T23:20:58.473Z,102363.19
2023-02-06T23:23:30.297Z,102362.23
2023-02-06T23:26:04.468Z,102363.19
2023-02-06T23:28:42.151Z,102363.42
2023-02-06T23:31:14.736Z,102360.56
2023-02-06T23:33:48.595Z,102364.45
2023-02-06T23:36:22.882Z,102358.39
2023-02-06T23:38:57.118Z,102355.91
2023-02-06T23:44:33.217Z,102344.86
2023-02-06T23:47:27.965Z,102344.73
2023-02-06T23:50:11.861Z,102345.47
2023-02-06T23:53:14.830Z,102347.08
2023-02-06T23:56:35.964Z,102348.60
2023-02-06T23:59:27.484Z,102343.19
